Latest Coastal Weather Observations for Milingimbi

IDD60701

Issued at 4:11 pm CST Monday 27 February 2017 (issued every 10 minutes, with the page automatically refreshed every 10 minutes)

About coastal observations | Map of coastal stations | Coastal observations for NT | Marine services | Other Formats
Station Details ID: 014404 Name: MILINGIMBI AIRPORT Lat: -12.09 Lon: 134.89 Height: 15.0 m
Data from the previous 72 hours. | See also: Recent months at Milingimbi
Date/Time
CST
Temp
°C
Wind Pressure Rain since
9am
mm
Weather Cloud Vis
km
Sea
Height
m
Swell
Dir  Spd
kts
Gust
kts
hPa Trend Height
m
Period
s
Dir
27/04:00pm 29.3 - 6 9 1006.6 - 0.0 - - - - - - -
27/03:30pm 29.6 - 8 11 1006.5 - 0.0 - - - - - - -
27/03:00pm 31.5 - 7 11 1006.3 - 0.0 - - - - - - -
27/02:30pm 31.3 - 5 11 1006.3 - 0.0 - - - - - - -
27/02:00pm 31.8 - 6 10 1006.6 - 0.0 - - - - - - -
27/01:30pm 32.5 - 5 9 1007.0 - 0.0 - - - - - - -
27/01:00pm 32.3 - 6 9 1007.7 - 0.0 - - - - - - -
27/12:30pm 31.5 - 5 10 1008.3 - 0.0 - - - - - - -
27/12:00pm 31.4 - 6 8 1008.8 - 0.0 - - - - - - -
27/11:30am 30.9 - 7 12 1009.2 - 0.0 - - - - - - -
27/11:00am 31.1 - 7 11 1009.4 - 0.0 - - - - - - -
27/10:30am 31.1 - 7 10 1009.8 - 0.0 - - - - - - -
27/10:00am 30.6 - 5 8 1010.0 - 0.0 - - - - - - -
27/09:30am 30.0 - 8 11 1009.8 - 0.0 - - - - - - -
27/09:00am 29.2 - 9 11 1009.6 - 19.4 - - - - - - -
27/08:30am 28.6 - 6 10 1009.5 - 19.4 - - - - - - -
27/08:00am 26.6 - 5 7 1009.1 - 19.4 - - - - - - -
27/07:30am 25.7 - 5 7 1008.6 - 19.4 - - - - - - -
27/07:00am 25.4 - 3 5 1008.4 - 19.4 - - - - - - -
27/06:30am 25.3 - 3 5 1008.1 - 19.4 - - - - - - -
27/06:00am 25.4 - 3 4 1007.8 - 19.4 - - - - - - -
27/05:30am 25.4 - 4 5 1007.8 - 19.4 - - - - - - -
27/05:00am 25.3 - 5 7 1007.6 - 19.4 - - - - - - -
27/04:30am 25.5 - 5 6 1007.8 - 19.4 - - - - - - -
27/04:00am 25.6 - 2 4 1007.9 - 19.4 - - - - - - -
27/03:30am 25.6 - 3 4 1007.9 - 19.4 - - - - - - -
27/03:00am 25.8 - 4 5 1008.1 - 19.4 - - - - - - -
27/02:30am 25.5 - 5 6 1007.9 - 19.4 - - - - - - -
27/02:00am 25.6 - 4 5 1008.3 - 19.4 - - - - - - -
27/01:30am 25.6 - 4 5 1008.6 - 19.4 - - - - - - -
27/01:00am 25.5 - 5 6 1009.1 - 19.4 - - - - - - -
27/12:30am 25.9 - 5 7 1009.1 - 19.4 - - - - - - -
27/12:00am 26.2 CALM 0 0 1009.2 - 19.4 - - - - - - -
 
Date/Time
CST
Temp
°C
Wind Pressure Rain since
9am
mm
Weather Cloud Vis
km
Sea
Height
m
Swell
Dir  Spd
kts
Gust
kts
hPa Trend Height
m
Period
s
Dir
26/11:30pm 25.9 - 2 3 1009.6 - 19.4 - - - - - - -
26/11:00pm 25.9 CALM 0 0 1009.6 - 19.4 - - - - - - -
26/10:30pm 25.6 - 1 3 1009.4 - 19.4 - - - - - - -
26/10:00pm 25.4 - 3 6 1009.3 - 19.2 - - - - - - -
26/09:30pm 24.8 - 6 11 1008.8 - 19.2 - - - - - - -
26/09:15pm 24.6 - 15 25 1008.6 - 17.4 - - - - - - -
26/09:02pm 25.7 - 18 25 1008.6 - 14.2 - - - - - - -
26/09:00pm 26.8 - 6 11 1008.4 - 14.0 - - - - - - -
26/08:30pm 27.4 - 6 8 1007.8 - 12.2 - - - - - - -
26/08:00pm 27.8 - 3 5 1008.0 - 5.8 - - - - - - -
26/07:30pm 27.9 - 4 7 1007.6 - 4.8 - - - - - - -
26/07:00pm 28.0 - 5 9 1007.0 - 4.8 - - - - - - -
26/06:30pm 27.6 - 3 6 1006.9 - 4.8 - - - - - - -
26/06:00pm 27.3 CALM 0 0 1006.4 - 4.8 - - - - - - -
26/05:30pm 27.2 - 3 4 1006.3 - 4.8 - - - - - - -
26/05:00pm 28.3 - 6 11 1006.1 - 2.2 - - - - - - -
26/04:30pm 29.8 - 5 8 1005.7 - 0.0 - - - - - - -
26/04:00pm 30.1 - 6 9 1005.5 - 0.0 - - - - - - -
26/03:30pm 30.3 - 5 8 1005.4 - 0.0 - - - - - - -
26/03:00pm 30.5 - 5 9 1005.5 - 0.0 - - - - - - -
26/02:30pm 32.6 - 6 10 1005.6 - 0.0 - - - - - - -
26/02:00pm 33.3 - 6 8 1005.8 - 0.0 - - - - - - -
26/01:30pm 33.1 - 6 10 1006.0 - 0.0 - - - - - - -
26/01:00pm 32.6 - 8 13 1006.5 - 0.0 - - - - - - -
26/12:30pm 32.5 - 6 9 1007.1 - 0.0 - - - - - - -
26/12:00pm 32.1 - 6 9 1007.4 - 0.0 - - - - - - -
26/11:30am 31.1 - 6 10 1007.8 - 0.0 - - - - - - -
26/11:00am 31.7 - 6 10 1008.0 - 0.0 - - - - - - -
26/10:30am 31.2 - 5 7 1008.2 - 0.0 - - - - - - -
26/10:00am 31.2 - 4 8 1008.6 - 0.0 - - - - - - -
26/09:30am 30.4 - 4 6 1008.9 - 0.0 - - - - - - -
26/09:00am 29.5 - 5 6 1008.7 - 4.8 - - - - - - -
26/08:30am 28.4 - 5 6 1008.8 - 4.8 - - - - - - -
26/08:00am 27.0 - 3 3 1008.6 - 4.8 - - - - - - -
26/07:30am 25.7 - 3 4 1008.4 - 4.8 - - - - - - -
26/07:00am 25.2 - 2 3 1008.1 - 4.8 - - - - - - -
26/06:30am 24.9 - 3 4 1008.0 - 4.8 - - - - - - -
26/06:00am 24.8 - 3 4 1007.5 - 4.8 - - - - - - -
26/05:30am 24.8 - 3 5 1007.3 - 4.8 - - - - - - -
26/05:00am 24.8 - 4 6 1007.2 - 4.8 - - - - - - -
26/04:30am 24.8 - 4 5 1007.1 - 4.8 - - - - - - -
26/04:00am 24.9 - 4 6 1007.0 - 4.8 - - - - - - -
26/03:30am 25.0 - 5 7 1007.2 - 4.8 - - - - - - -
26/03:00am 25.2 - 5 6 1007.3 - 4.8 - - - - - - -
26/02:30am 25.3 - 3 5 1007.6 - 4.8 - - - - - - -
26/02:00am 25.3 - 4 6 1008.0 - 4.8 - - - - - - -
26/01:30am 25.3 - 5 6 1008.4 - 4.8 - - - - - - -
26/01:00am 25.4 - 4 6 1008.9 - 4.8 - - - - - - -
26/12:30am 25.4 - 4 6 1009.4 - 4.8 - - - - - - -
26/12:00am 25.4 - 5 6 1009.5 - 4.8 - - - - - - -
 
Date/Time
CST
Temp
°C
Wind Pressure Rain since
9am
mm
Weather Cloud Vis
km
Sea
Height
m
Swell
Dir  Spd
kts
Gust
kts
hPa Trend Height
m
Period
s
Dir
25/11:30pm 25.4 - 3 4 1009.5 - 4.8 - - - - - - -
25/11:00pm 25.4 - 4 5 1009.7 - 4.8 - - - - - - -
25/10:30pm 25.5 - 4 6 1009.9 - 4.8 - - - - - - -
25/10:00pm 25.5 - 4 5 1009.8 - 4.8 - - - - - - -
25/09:30pm 25.5 - 4 6 1009.6 - 4.8 - - - - - - -
25/09:00pm 25.6 - 4 5 1009.0 - 4.8 - - - - - - -
25/08:30pm 25.7 - 4 5 1008.5 - 4.8 - - - - - - -
25/08:00pm 25.8 - 4 6 1008.0 - 4.8 - - - - - - -
25/07:30pm 25.9 CALM 0 0 1008.0 - 4.8 - - - - - - -
25/07:00pm 25.9 - 2 4 1007.3 - 4.8 - - - - - - -
25/06:30pm 25.9 - 3 5 1007.2 - 4.8 - - - - - - -
25/06:00pm 25.8 - 5 7 1007.0 - 4.8 - - - - - - -
25/05:30pm 25.7 - 4 6 1006.9 - 4.6 - - - - - - -
25/05:00pm 25.8 - 4 5 1007.3 - 4.6 - - - - - - -
25/04:30pm 25.8 - 4 6 1007.9 - 4.0 - - - - - - -
25/04:00pm 25.6 - 4 5 1008.0 - 3.2 - - - - - - -
25/03:30pm 25.5 - 3 4 1008.6 - 3.0 - - - - - - -
25/03:00pm 25.2 - 4 6 1009.0 - 3.0 - - - - - - -
25/02:30pm 25.0 - 6 10 1009.2 - 2.8 - - - - - - -
25/02:00pm 25.9 - 16 28 1009.6 - 0.2 - - - - - - -
25/01:36pm 30.1 - 19 30 1009.1 - 0.0 - - - - - - -
25/01:30pm 33.1 - 5 8 1008.8 - 0.0 - - - - - - -
25/01:00pm 33.6 - 5 7 1008.8 - 0.0 - - - - - - -
25/12:30pm 33.1 - 4 6 1009.3 - 0.0 - - - - - - -
25/12:00pm 32.9 - 4 5 1010.1 - 0.0 - - - - - - -
25/11:30am 32.6 - 6 8 1010.8 - 0.0 - - - - - - -
25/11:00am 32.2 - 4 7 1011.2 - 0.0 - - - - - - -
25/10:30am 31.3 - 5 7 1011.6 - 0.0 - - - - - - -
25/10:00am 30.4 - 5 8 1011.3 - 0.0 - - - - - - -
25/09:30am 30.5 - 7 9 1011.5 - 0.0 - - - - - - -
25/09:00am 30.6 - 6 8 1011.2 - 0.0 - - - - - - -
25/08:30am 29.6 - 4 6 1011.3 - 0.0 - - - - - - -
25/08:00am 28.1 - 5 7 1011.4 - 0.0 - - - - - - -
25/07:30am 26.9 - 3 5 1011.0 - 0.0 - - - - - - -
25/07:00am 26.2 - 4 5 1010.8 - 0.0 - - - - - - -
25/06:30am 26.0 - 3 5 1010.2 - 0.0 - - - - - - -
25/06:00am 25.9 - 4 5 1009.8 - 0.0 - - - - - - -
25/05:30am 26.0 - 4 5 1009.9 - 0.0 - - - - - - -
25/05:00am 26.2 - 4 5 1009.7 - 0.0 - - - - - - -
25/04:30am 26.5 - 4 5 1009.5 - 0.0 - - - - - - -
25/04:00am 26.5 - 4 5 1009.5 - 0.0 - - - - - - -
25/03:30am 26.4 - 2 4 1009.2 - 0.0 - - - - - - -
25/03:00am 26.5 - 3 4 1009.4 - 0.0 - - - - - - -
25/02:30am 26.6 - 1 3 1009.7 - 0.0 - - - - - - -
25/02:00am 26.7 - 1 3 1010.0 - 0.0 - - - - - - -
25/01:30am 26.7 CALM 0 0 1010.2 - 0.0 - - - - - - -
25/01:00am 26.7 CALM 0 0 1010.4 - 0.0 - - - - - - -
25/12:30am 26.9 CALM 0 0 1010.8 - 0.0 - - - - - - -
25/12:00am 26.9 CALM 0 0 1010.9 - 0.0 - - - - - - -
 
Date/Time
CST
Temp
°C
Wind Pressure Rain since
9am
mm
Weather Cloud Vis
km
Sea
Height
m
Swell
Dir  Spd
kts
Gust
kts
hPa Trend Height
m
Period
s
Dir
24/11:30pm 27.0 CALM 0 0 1011.3 - 0.0 - - - - - - -
24/11:00pm 27.2 CALM 0 0 1011.2 - 0.0 - - - - - - -
24/10:30pm 27.3 CALM 0 0 1010.9 - 0.0 - - - - - - -
24/10:00pm 27.6 CALM 0 0 1010.8 - 0.0 - - - - - - -
24/09:30pm 27.5 CALM 0 0 1010.5 - 0.0 - - - - - - -
24/09:00pm 27.9 CALM 0 0 1010.3 - 0.0 - - - - - - -
24/08:30pm 28.1 - 2 3 1010.3 - 0.0 - - - - - - -
24/08:00pm 28.7 - 3 4 1010.0 - 0.0 - - - - - - -
24/07:30pm 28.8 - 3 5 1009.5 - 0.0 - - - - - - -
24/07:00pm 29.4 - 3 6 1009.2 - 0.0 - - - - - - -
24/06:30pm 29.9 - 4 6 1008.9 - 0.0 - - - - - - -
24/06:00pm 30.2 - 5 8 1008.7 - 0.0 - - - - - - -
24/05:30pm 30.9 - 6 9 1008.9 - 0.0 - - - - - - -
24/05:00pm 31.1 - 6 8 1008.8 - 0.0 - - - - - - -
24/04:30pm 32.2 - 6 9 1008.8 - 0.0 - - - - - - -

Other Formats:

Comma delimited format used in spreadsheet applications
http://www.bom.gov.au/fwo/IDD60701/IDD60701.94140.axf

JavaScript Object Notation format (JSON) in row-major order
http://www.bom.gov.au/fwo/IDD60701/IDD60701.94140.json